Aérodrome :
LOGIN :

S'inscrire | Disclaimer

   EN    FR    IT 

 










Légende :    VFR   VFR Marginal   IFR   IFR Intensif   IFR Très Intensif
Visi : 
Plafond : 
>= 8 km
>= 3000ft
5 à 8 km
1000 à 3000 ft
1500m à 5 km
500 à 1000 ft
800 à 1500m
200 à 500 ft
< 800m
< 200 ft
Symboles :   Orages  Brouillard  Fortes neiges  Fortes précipitations  Vent > 20 kt
SIGMETs :   Divers  Orages  Givrage  Turbulence  Onde Orograph.  Cendres Volcan.







- Altitude de l'aérodrome : 18 ft
- Code IATA : AJA
- Voir les cartes d'approche


LFKJ - Ajaccio

DERNIER METAR :
  • 192000Z AUTO 05005KT 020V090 CAVOK 13/08 Q1013 NOSIG

METARs EXPIRÉS :
  • 191930Z AUTO 05006KT CAVOK 14/07 Q1013 NOSIG
  • 191900Z AUTO 05007KT 020V100 9999 FEW049/// SCT210/// ///CB 14/08 Q1013 BECMG NSC
  • 191830Z AUTO 03012KT 9999 -RA FEW006/// BKN043/// BKN052/// ///CB 15/08 Q1013 BECMG NSC
  • 191800Z AUTO 29010KT 9999 VCTS FEW047/// BKN068/// BKN100/// ///CB 19/10 Q1012 BECMG NSW NSC
  • 191730Z AUTO 28013KT 250V310 9999 VCTS FEW046/// BKN074/// BKN140/// ///CB 19/10 Q1012 BECMG NSW NSC

TAF TAF LFKJ
Valide du 19 à 21h jusqu'au 20 à 21h UTC


192000Z 1921/2021 05005KT CAVOK
BECMG 2009/2011 23010KT FEW040
ATIS : +33 4 95 23 59 85
Pas de NOTAMs connus pour ce terrain.
2 SIGMETs publiés pour la FIR Marseille (LFMM) :
 
Turbulence forte
LFMM SIGMET 13 VALID 192000/200000 LFPW
LFMM MARSEILLE FIR/UIR SEV TURB FCST WI N4300 E00500 - N4330 E00500 - N4145 E00715 - N4130 E00645 SFC/FL050 STNR WKN=
Turbulence forte
LFMM SIGMET 12 VALID 192000/200000 LFPW
LFMM MARSEILLE FIR/UIR SEV TURB FCST WI N4115 E00915 - N4115 E00800 - N4100 E00800 - N4330 E00545 - N4345 E00700 FL200/320 MOV E 30KT WKN=



MET'MAP, la Météo Aéronautique d'un coup d'oeil ! - Copyright ORBIFLY Décembre 2007 - Disclaimer

ORBIFLY MET'MAP TEAM :

Programmation & Développement : Alexandra Zaïnal
Conception & Développement : Baudouin d'Aumeries
Co-Programmation & Développement : Marc-Olivier Méhu
Soutien technique & logistique : Manuel Goepfert

Contact : metmap@orbifly.com




SOURCES & CREDITS :

   NOAA